Time;durP1;ratioP1;P1;durP2;ratioP2;P2;SDS_P1;SDS_P2;PMS_P1;PMS_P2;Temp;Humidity;BMP_temperature;BMP_pressure;BME280_temperature;BME280_humidity;BME280_pressure;Samples;Min_cycle;Max_cycle;Signal;HPM_P1;HPM_P2
2024/02/03 00:01:10;;;;;;;;;;;;;;;1.52;87.70;100359.78;108099;1254;71664;-71
2024/02/03 00:03:38;;;;;;;;;;;;;;;1.51;88.35;100358.12;108308;1254;72629;-72
2024/02/03 00:06:06;;;;;;;;;;;;;;;1.51;88.49;100355.03;108313;1253;60980;-72
2024/02/03 00:08:34;;;;;;;;;;;;;;;1.47;88.87;100346.98;108152;1253;60276;-71
2024/02/03 00:11:07;;;;;;;;;;;;;;;1.46;89.39;100344.31;108103;1254;74261;-71
2024/02/03 00:13:34;;;;;;;;;;;;;;;1.46;90.26;100343.10;108310;1253;71577;-72
2024/02/03 00:16:02;;;;;;;;;;;;;;;1.46;90.52;100332.33;108176;1254;71402;-71
2024/02/03 00:18:30;;;;;;;;;;;;;;;1.47;90.92;100324.06;108290;1253;60277;-72
2024/02/03 00:20:58;;;;;;;;;;;;;;;1.47;91.08;100325.40;108239;1254;59575;-71
2024/02/03 00:23:25;;;;;;;;;;;;;;;1.47;91.38;100323.41;108205;1254;72819;-71
2024/02/03 00:25:53;;;;;;;;;;;;;;;1.46;91.72;100324.11;108148;1254;70386;-71
2024/02/03 00:28:21;;;;;;;;;;;;;;;1.46;91.96;100317.06;108274;1254;71458;-71
2024/02/03 00:30:48;;;;;;;;;;;;;;;1.47;92.35;100308.55;108143;1254;62313;-72
2024/02/03 00:33:16;;;;;;;;;;;;;;;1.47;92.34;100304.34;108262;1254;60383;-72
2024/02/03 00:35:45;;;;;;;;;;;;;;;1.48;92.60;100303.58;108281;1253;72808;-72
2024/02/03 00:38:13;;;;;;;;;;;;;;;1.48;92.95;100295.96;108193;1253;72751;-72
2024/02/03 00:40:40;;;;;;;;;;;;;;;1.49;93.07;100289.70;108097;1255;71711;-73
2024/02/03 00:43:08;;;;;;;;;;;;;;;1.47;93.27;100287.83;108053;1254;59877;-73
2024/02/03 00:45:36;;;;;;;;;;;;;;;1.47;93.81;100287.66;108184;1254;60284;-71
2024/02/03 00:48:04;;;;;;;;;;;;;;;1.47;94.38;100285.88;108397;1256;73867;-72
2024/02/03 00:50:32;;;;;;;;;;;;;;;1.49;94.74;100282.15;108281;1254;71439;-72
2024/02/03 00:52:59;;;;;;;;;;;;;;;1.51;95.09;100278.75;108263;1256;72829;-73
2024/02/03 00:55:27;;;;;;;;;;;;;;;1.53;95.52;100278.75;108278;1254;59890;-72
2024/02/03 00:57:55;;;;;;;;;;;;;;;1.55;95.65;100272.89;108402;1254;60192;-73
2024/02/03 01:00:24;;;;;;;;;;;;;;;1.58;95.84;100265.66;108240;1254;74043;-70
2024/02/03 01:02:52;;;;;;;;;;;;;;;1.61;96.14;100262.21;108160;1254;71323;-73
2024/02/03 01:05:20;;;;;;;;;;;;;;;1.66;96.08;100265.00;108260;1254;74838;-72
2024/02/03 01:07:47;;;;;;;;;;;;;;;1.69;95.89;100266.66;108309;1253;60960;-71
2024/02/03 01:10:15;;;;;;;;;;;;;;;1.72;95.95;100266.77;108277;1254;60278;-73
2024/02/03 01:12:43;;;;;;;;;;;;;;;1.75;95.81;100264.09;108150;1253;72818;-72
2024/02/03 01:15:11;;;;;;;;;;;;;;;1.76;95.44;100268.30;108288;1254;72753;-72
2024/02/03 01:17:39;;;;;;;;;;;;;;;1.79;95.53;100268.63;108155;1254;72458;-70
2024/02/03 01:20:07;;;;;;;;;;;;;;;1.81;95.45;100266.91;108174;1254;60957;-71
2024/02/03 01:22:35;;;;;;;;;;;;;;;1.84;95.29;100258.11;108309;1253;60318;-72
2024/02/03 01:25:03;;;;;;;;;;;;;;;1.86;95.16;100255.52;108129;1254;73853;-70
2024/02/03 01:27:31;;;;;;;;;;;;;;;1.89;94.74;100246.92;108161;1254;71489;-71
2024/02/03 01:29:59;;;;;;;;;;;;;;;1.91;94.72;100235.69;108101;1258;72514;-71
2024/02/03 01:32:27;;;;;;;;;;;;;;;1.92;94.37;100231.77;108240;1254;60150;-71
2024/02/03 01:34:54;;;;;;;;;;;;;;;1.93;94.47;100219.91;108190;1252;60282;-71
2024/02/03 01:37:22;;;;;;;;;;;;;;;1.93;94.28;100214.48;108293;1254;72631;-72
2024/02/03 01:39:50;;;;;;;;;;;;;;;1.92;94.44;100211.73;108172;1254;71601;-72
2024/02/03 01:42:18;;;;;;;;;;;;;;;1.93;94.44;100201.08;108172;1253;71094;-73
2024/02/03 01:44:46;;;;;;;;;;;;;;;1.95;94.30;100198.73;108270;1254;59708;-72
2024/02/03 01:47:14;;;;;;;;;;;;;;;1.97;94.52;100197.85;108164;1253;60280;-72
2024/02/03 01:49:42;;;;;;;;;;;;;;;2.01;94.32;100192.46;108221;1254;75322;-72
2024/02/03 01:52:13;;;;;;;;;;;;;;;2.03;94.28;100181.45;108272;1253;71301;-72
2024/02/03 01:54:43;;;;;;;;;;;;;;;2.06;94.14;100178.93;108058;1254;72703;-73
2024/02/03 01:57:11;;;;;;;;;;;;;;;2.08;94.04;100174.39;108127;1254;63166;-72
2024/02/03 01:59:39;;;;;;;;;;;;;;;2.12;94.22;100174.41;108224;1254;60833;-73
2024/02/03 02:02:07;;;;;;;;;;;;;;;2.16;93.89;100160.45;108188;1254;76005;-74
2024/02/03 02:04:35;;;;;;;;;;;;;;;2.19;93.74;100149.60;108217;1253;75048;-73
2024/02/03 02:07:03;;;;;;;;;;;;;;;2.22;93.52;100146.71;108004;1254;72795;-74
2024/02/03 02:09:31;;;;;;;;;;;;;;;2.25;93.17;100137.05;108086;1254;60380;-72
2024/02/03 02:11:58;;;;;;;;;;;;;;;2.26;93.00;100135.38;108237;1254;59742;-72
2024/02/03 02:14:26;;;;;;;;;;;;;;;2.28;92.60;100131.38;108204;1253;72695;-72
2024/02/03 02:16:55;;;;;;;;;;;;;;;2.29;92.20;100129.23;108169;1258;71583;-71
2024/02/03 02:19:23;;;;;;;;;;;;;;;2.29;92.12;100131.17;108299;1254;71115;-71
2024/02/03 02:21:51;;;;;;;;;;;;;;;2.31;92.19;100133.84;108128;1254;60518;-73
2024/02/03 02:24:19;;;;;;;;;;;;;;;2.34;92.13;100140.11;108198;1254;60720;-73
2024/02/03 02:26:47;;;;;;;;;;;;;;;2.36;92.20;100136.48;108272;1252;73866;-73
2024/02/03 02:29:14;;;;;;;;;;;;;;;2.39;92.16;100128.19;108379;1254;71590;-73
2024/02/03 02:31:42;;;;;;;;;;;;;;;2.42;92.10;100128.38;108203;1254;71481;-72
2024/02/03 02:34:10;;;;;;;;;;;;;;;2.43;92.23;100125.65;108206;1256;60428;-72
2024/02/03 02:36:37;;;;;;;;;;;;;;;2.47;92.46;100127.65;108174;1254;60431;-71
2024/02/03 02:39:05;;;;;;;;;;;;;;;2.50;92.57;100126.77;108090;1259;73906;-72
2024/02/03 02:41:33;;;;;;;;;;;;;;;2.52;92.67;100121.15;108128;1254;73037;-72
2024/02/03 02:44:01;;;;;;;;;;;;;;;2.55;92.79;100116.95;108045;1257;72563;-72
2024/02/03 02:46:28;;;;;;;;;;;;;;;2.57;92.89;100113.14;108145;1254;60354;-71
2024/02/03 02:48:57;;;;;;;;;;;;;;;2.59;93.03;100115.30;108085;1254;60289;-72
2024/02/03 02:51:24;;;;;;;;;;;;;;;2.61;93.15;100110.55;108131;1254;73920;-72
2024/02/03 02:53:52;;;;;;;;;;;;;;;2.59;93.82;100110.72;108170;1259;71883;-72
2024/02/03 02:56:20;;;;;;;;;;;;;;;2.57;94.28;100099.95;108235;1254;70811;-72
2024/02/03 02:58:48;;;;;;;;;;;;;;;2.58;94.88;100091.17;108270;1253;60325;-70
2024/02/03 03:01:16;;;;;;;;;;;;;;;2.59;95.56;100085.66;108266;1254;60332;-70
2024/02/03 03:03:44;;;;;;;;;;;;;;;2.61;95.95;100082.52;108262;1254;73810;-72
2024/02/03 03:06:12;;;;;;;;;;;;;;;2.62;96.40;100080.57;108170;1255;73047;-73
2024/02/03 03:08:40;;;;;;;;;;;;;;;2.61;97.05;100074.59;108201;1259;71470;-73
2024/02/03 03:11:09;;;;;;;;;;;;;;;2.61;97.46;100064.95;108153;1254;60312;-73
2024/02/03 03:13:37;;;;;;;;;;;;;;;2.62;97.76;100063.77;108277;1253;59279;-73
2024/02/03 03:16:07;;;;;;;;;;;;;;;2.62;98.22;100062.07;108110;1254;72865;-72
2024/02/03 03:18:35;;;;;;;;;;;;;;;2.62;98.85;100063.11;108229;1254;71644;-73
2024/02/03 03:21:02;;;;;;;;;;;;;;;2.62;99.43;100053.27;108271;1254;72948;-73
2024/02/03 03:23:30;;;;;;;;;;;;;;;2.64;99.99;100039.94;108290;1254;60280;-72
2024/02/03 03:26:00;;;;;;;;;;;;;;;2.67;100.00;100028.89;108145;1253;60261;-73
2024/02/03 03:28:28;;;;;;;;;;;;;;;2.68;100.00;100021.13;108323;1254;72559;-72
2024/02/03 03:30:56;;;;;;;;;;;;;;;2.69;100.00;100021.71;108275;1254;75059;-73
2024/02/03 03:33:23;;;;;;;;;;;;;;;2.67;100.00;100009.77;108215;1254;72708;-72
2024/02/03 03:35:51;;;;;;;;;;;;;;;2.67;100.00;99999.48;108133;1254;60505;-72
2024/02/03 03:38:19;;;;;;;;;;;;;;;2.68;100.00;99995.29;108195;1255;60430;-72
2024/02/03 03:40:47;;;;;;;;;;;;;;;2.69;100.00;99986.14;108175;1254;72558;-72
2024/02/03 03:43:14;;;;;;;;;;;;;;;2.70;100.00;99980.36;108165;1257;72643;-71
2024/02/03 03:45:42;;;;;;;;;;;;;;;2.71;100.00;99979.19;108213;1254;71872;-70
2024/02/03 03:48:09;;;;;;;;;;;;;;;2.71;100.00;99981.98;108145;1259;60936;-73
2024/02/03 03:50:38;;;;;;;;;;;;;;;2.72;100.00;99987.16;108336;1256;60255;-72
2024/02/03 03:53:05;;;;;;;;;;;;;;;2.73;100.00;99991.45;108266;1255;73843;-72
2024/02/03 03:55:33;;;;;;;;;;;;;;;2.74;100.00;99989.30;108216;1253;74448;-73
2024/02/03 03:58:01;;;;;;;;;;;;;;;2.75;100.00;99980.72;108175;1254;72812;-72
2024/02/03 04:00:28;;;;;;;;;;;;;;;2.76;100.00;99973.85;108055;1260;60954;-73
2024/02/03 04:02:56;;;;;;;;;;;;;;;2.77;100.00;99970.88;108146;1255;60274;-72
2024/02/03 04:05:25;;;;;;;;;;;;;;;2.76;100.00;99969.11;108136;1254;74572;-72
2024/02/03 04:07:53;;;;;;;;;;;;;;;2.73;100.00;99965.81;108171;1258;73056;-71
2024/02/03 04:10:20;;;;;;;;;;;;;;;2.72;100.00;99960.42;108106;1254;71794;-71
2024/02/03 04:12:48;;;;;;;;;;;;;;;2.71;100.00;99951.23;108110;1254;60598;-71
2024/02/03 04:15:16;;;;;;;;;;;;;;;2.69;100.00;99945.98;108121;1255;60494;-72
2024/02/03 04:17:44;;;;;;;;;;;;;;;2.66;100.00;99941.31;108129;1254;74055;-71
2024/02/03 04:20:11;;;;;;;;;;;;;;;2.60;100.00;99942.23;108171;1254;72807;-71
2024/02/03 04:22:40;;;;;;;;;;;;;;;2.56;100.00;99936.98;108190;1254;73563;-72
2024/02/03 04:25:07;;;;;;;;;;;;;;;2.53;100.00;99929.16;108295;1252;60888;-72
2024/02/03 04:27:35;;;;;;;;;;;;;;;2.51;100.00;99924.20;108171;1253;60377;-71
2024/02/03 04:30:03;;;;;;;;;;;;;;;2.48;100.00;99923.16;108170;1254;72544;-72
2024/02/03 04:32:51;;;;;;;;;;;;;;;2.43;100.00;99916.01;108137;1254;71893;-72
2024/02/03 04:35:19;;;;;;;;;;;;;;;2.41;100.00;99914.81;108299;1254;71371;-72
2024/02/03 04:37:49;;;;;;;;;;;;;;;2.39;100.00;99909.80;108158;1254;60187;-72
2024/02/03 04:40:17;;;;;;;;;;;;;;;2.38;100.00;99903.33;108177;1254;60319;-71
2024/02/03 04:42:44;;;;;;;;;;;;;;;2.34;100.00;99892.34;107992;1254;227609;-72
2024/02/03 04:45:12;;;;;;;;;;;;;;;2.33;100.00;99889.47;108162;1253;71295;-71
2024/02/03 04:47:40;;;;;;;;;;;;;;;2.32;100.00;99892.11;108194;1256;72864;-72
2024/02/03 04:50:08;;;;;;;;;;;;;;;2.33;100.00;99879.70;108121;1254;60291;-71
2024/02/03 04:52:36;;;;;;;;;;;;;;;2.34;100.00;99869.15;108165;1253;60316;-71
2024/02/03 04:55:05;;;;;;;;;;;;;;;2.35;100.00;99861.89;108150;1258;72541;-73
2024/02/03 04:57:33;;;;;;;;;;;;;;;2.33;100.00;99851.44;108178;1254;72966;-72
2024/02/03 05:00:00;;;;;;;;;;;;;;;2.31;100.00;99848.75;108079;1254;72845;-73
2024/02/03 05:02:28;;;;;;;;;;;;;;;2.28;100.00;99847.36;108295;1254;60354;-75
2024/02/03 05:04:56;;;;;;;;;;;;;;;2.26;100.00;99842.27;108173;1258;60430;-74
2024/02/03 05:07:24;;;;;;;;;;;;;;;2.25;100.00;99837.36;108271;1254;73973;-72
2024/02/03 05:09:52;;;;;;;;;;;;;;;2.24;100.00;99827.08;108246;1254;72544;-72
2024/02/03 05:12:20;;;;;;;;;;;;;;;2.23;100.00;99817.86;108300;1255;71450;-75
2024/02/03 05:14:48;;;;;;;;;;;;;;;2.26;100.00;99815.77;108226;1253;60887;-73
2024/02/03 05:17:15;;;;;;;;;;;;;;;2.26;100.00;99809.55;108143;1254;58995;-75
2024/02/03 05:19:43;;;;;;;;;;;;;;;2.25;100.00;99797.30;108176;1257;73929;-74
2024/02/03 05:22:11;;;;;;;;;;;;;;;2.22;100.00;99787.27;108359;1254;71681;-73
2024/02/03 05:24:39;;;;;;;;;;;;;;;2.20;100.00;99781.34;108226;1254;73600;-73
2024/02/03 05:27:07;;;;;;;;;;;;;;;2.17;100.00;99773.68;108248;1254;61118;-75
2024/02/03 05:29:34;;;;;;;;;;;;;;;2.14;100.00;99770.26;108216;1254;60386;-73
2024/02/03 05:32:04;;;;;;;;;;;;;;;2.11;100.00;99769.20;108332;1254;72595;-77
2024/02/03 05:34:31;;;;;;;;;;;;;;;2.09;100.00;99762.73;108203;1254;75105;-75
2024/02/03 05:36:59;;;;;;;;;;;;;;;2.08;100.00;99762.34;108233;1254;72876;-75
2024/02/03 05:39:27;;;;;;;;;;;;;;;2.08;100.00;99757.80;108208;1254;63093;-77
2024/02/03 05:41:55;;;;;;;;;;;;;;;2.10;100.00;99754.10;108157;1254;59212;-75
2024/02/03 05:44:22;;;;;;;;;;;;;;;2.09;100.00;99755.92;108253;1254;73956;-73
2024/02/03 05:46:50;;;;;;;;;;;;;;;2.08;100.00;99752.80;108243;1254;72699;-73
2024/02/03 05:49:17;;;;;;;;;;;;;;;2.08;100.00;99745.48;108209;1253;72426;-73
2024/02/03 05:51:46;;;;;;;;;;;;;;;2.09;100.00;99743.16;108127;1254;59990;-73
2024/02/03 05:54:14;;;;;;;;;;;;;;;2.09;100.00;99734.20;108192;1254;60312;-73
2024/02/03 05:56:41;;;;;;;;;;;;;;;2.09;100.00;99732.47;108164;1253;73870;-72
2024/02/03 05:59:09;;;;;;;;;;;;;;;2.09;100.00;99729.42;108139;1254;72732;-77
2024/02/03 06:01:56;;;;;;;;;;;;;;;2.09;100.00;99726.42;108168;1253;71903;-74
2024/02/03 06:04:27;;;;;;;;;;;;;;;2.10;100.00;99731.96;108123;1260;60325;-72
2024/02/03 06:06:55;;;;;;;;;;;;;;;2.09;100.00;99729.38;108148;1254;60430;-75
2024/02/03 06:09:25;;;;;;;;;;;;;;;2.10;100.00;99728.92;108216;1254;72522;-75
2024/02/03 06:11:53;;;;;;;;;;;;;;;2.10;100.00;99736.57;108326;1254;71660;-74
2024/02/03 06:14:21;;;;;;;;;;;;;;;2.08;100.00;99725.36;108207;1254;71901;-74
2024/02/03 06:16:51;;;;;;;;;;;;;;;2.07;100.00;99724.58;108309;1254;60867;-75
2024/02/03 06:19:18;;;;;;;;;;;;;;;2.08;100.00;99712.95;108202;1254;60300;-72
2024/02/03 06:21:47;;;;;;;;;;;;;;;2.07;100.00;99722.52;108532;1254;73374;-72
2024/02/03 06:24:15;;;;;;;;;;;;;;;2.06;100.00;99727.56;108188;1254;72452;-74
2024/02/03 06:26:43;;;;;;;;;;;;;;;2.03;100.00;99724.64;108241;1257;71466;-72
2024/02/03 06:29:11;;;;;;;;;;;;;;;2.02;100.00;99720.80;108121;1254;60646;-77
2024/02/03 06:31:39;;;;;;;;;;;;;;;2.04;100.00;99703.27;108116;1254;61014;-74
2024/02/03 06:34:08;;;;;;;;;;;;;;;2.08;100.00;99712.60;108283;1253;73825;-74
2024/02/03 06:36:36;;;;;;;;;;;;;;;2.09;100.00;99716.83;108166;1254;72746;-72
2024/02/03 06:39:04;;;;;;;;;;;;;;;2.10;100.00;99702.48;108188;1254;73175;-75
2024/02/03 06:41:32;;;;;;;;;;;;;;;2.15;100.00;99694.39;108152;1254;60814;-73
2024/02/03 06:44:00;;;;;;;;;;;;;;;2.18;100.00;99680.61;108182;1253;60322;-72
2024/02/03 06:46:27;;;;;;;;;;;;;;;2.19;100.00;99672.20;108050;1254;72640;-70
2024/02/03 06:48:55;;;;;;;;;;;;;;;2.19;100.00;99663.77;108214;1254;72733;-74
2024/02/03 06:51:23;;;;;;;;;;;;;;;2.19;100.00;99655.77;108114;1254;71395;-74
2024/02/03 06:53:50;;;;;;;;;;;;;;;2.20;100.00;99646.61;108268;1254;60421;-72
2024/02/03 06:56:18;;;;;;;;;;;;;;;2.21;100.00;99646.59;108132;1254;60326;-74
2024/02/03 06:58:46;;;;;;;;;;;;;;;2.22;100.00;99640.46;108244;1254;73862;-72
2024/02/03 07:01:14;;;;;;;;;;;;;;;2.24;100.00;99636.14;108218;1254;73983;-72
2024/02/03 07:03:42;;;;;;;;;;;;;;;2.24;100.00;99643.15;108123;1254;71074;-74
2024/02/03 07:06:11;;;;;;;;;;;;;;;2.23;100.00;99638.05;108259;1253;60914;-72
2024/02/03 07:08:39;;;;;;;;;;;;;;;2.23;100.00;99633.31;108232;1253;60281;-73
2024/02/03 07:11:06;;;;;;;;;;;;;;;2.24;100.00;99626.21;108155;1254;73224;-74
2024/02/03 07:13:35;;;;;;;;;;;;;;;2.25;100.00;99622.10;108238;1254;73778;-71
2024/02/03 07:16:03;;;;;;;;;;;;;;;2.25;100.00;99616.88;108199;1253;72651;-74
2024/02/03 07:18:31;;;;;;;;;;;;;;;2.24;100.00;99606.06;108291;1253;60825;-72
2024/02/03 07:20:59;;;;;;;;;;;;;;;2.24;100.00;99601.31;108243;1253;60312;-73
2024/02/03 07:23:27;;;;;;;;;;;;;;;2.23;100.00;99604.22;108302;1254;73856;-71
2024/02/03 07:25:54;;;;;;;;;;;;;;;2.26;100.00;99593.30;108087;1254;72496;-74
2024/02/03 07:28:22;;;;;;;;;;;;;;;2.30;100.00;99590.27;108354;1254;72668;-73
2024/02/03 07:30:50;;;;;;;;;;;;;;;2.33;100.00;99593.08;108130;1255;60325;-75
2024/02/03 07:33:18;;;;;;;;;;;;;;;2.34;100.00;99590.02;108154;1253;59593;-73
2024/02/03 07:35:47;;;;;;;;;;;;;;;2.36;100.00;99596.91;108155;1254;73797;-75
2024/02/03 07:38:17;;;;;;;;;;;;;;;2.36;100.00;99592.01;108191;1254;73261;-76
2024/02/03 07:40:44;;;;;;;;;;;;;;;2.37;100.00;99579.20;108139;1258;71272;-76
2024/02/03 07:43:12;;;;;;;;;;;;;;;2.38;100.00;99571.35;108142;1253;60856;-71
2024/02/03 07:45:40;;;;;;;;;;;;;;;2.40;100.00;99564.75;108102;1254;60280;-72
2024/02/03 07:48:08;;;;;;;;;;;;;;;2.43;100.00;99563.96;108225;1254;73901;-73
2024/02/03 07:50:36;;;;;;;;;;;;;;;2.46;100.00;99556.25;108297;1254;70789;-71
2024/02/03 07:53:04;;;;;;;;;;;;;;;2.47;100.00;99551.25;108166;1254;71754;-72
2024/02/03 07:55:31;;;;;;;;;;;;;;;2.46;100.00;99548.50;108381;1256;60427;-73
2024/02/03 07:57:59;;;;;;;;;;;;;;;2.46;100.00;99546.80;108260;1253;60437;-74
2024/02/03 08:00:27;;;;;;;;;;;;;;;2.45;100.00;99538.78;108188;1254;73874;-73
2024/02/03 08:02:57;;;;;;;;;;;;;;;2.45;100.00;99534.61;108189;1253;72516;-71
2024/02/03 08:05:25;;;;;;;;;;;;;;;2.46;100.00;99535.09;108116;1257;73064;-74
2024/02/03 08:08:01;;;;;;;;;;;;;;;2.48;100.00;99519.29;108097;1254;60484;-75
2024/02/03 08:10:57;;;;;;;;;;;;;;;2.48;100.00;99512.92;108023;1253;60432;-72
2024/02/03 08:14:00;;;;;;;;;;;;;;;2.50;100.00;99517.86;107992;1254;73950;-75
2024/02/03 08:19:51;;;;;;;;;;;;;;;2.56;100.00;99518.48;107999;1256;71275;-71
2024/02/03 08:22:19;;;;;;;;;;;;;;;2.59;100.00;99518.95;108067;1254;61907;-77
2024/02/03 08:24:47;;;;;;;;;;;;;;;2.59;100.00;99498.61;108169;1254;60293;-72
2024/02/03 08:27:15;;;;;;;;;;;;;;;2.62;100.00;99498.97;108099;1254;73809;-73
2024/02/03 08:29:43;;;;;;;;;;;;;;;2.62;100.00;99498.72;108108;1254;72655;-74
2024/02/03 08:32:10;;;;;;;;;;;;;;;2.61;100.00;99489.85;108151;1254;73555;-72
2024/02/03 08:34:40;;;;;;;;;;;;;;;2.58;100.00;99485.05;108177;1254;60337;-73
2024/02/03 08:37:28;;;;;;;;;;;;;;;2.57;100.00;99479.43;108179;1254;60257;-74
2024/02/03 08:39:55;;;;;;;;;;;;;;;2.57;100.00;99478.58;108212;1254;72572;-75
2024/02/03 08:42:23;;;;;;;;;;;;;;;2.56;100.00;99486.41;108192;1254;72485;-72
2024/02/03 08:44:50;;;;;;;;;;;;;;;2.53;100.00;99475.27;108118;1254;71693;-76
2024/02/03 08:47:19;;;;;;;;;;;;;;;2.54;100.00;99467.60;108183;1259;60283;-72
2024/02/03 08:49:50;;;;;;;;;;;;;;;2.56;100.00;99460.33;108214;1253;60421;-72
2024/02/03 08:52:18;;;;;;;;;;;;;;;2.62;100.00;99453.42;108244;1254;73913;-73
2024/02/03 08:54:45;;;;;;;;;;;;;;;2.67;100.00;99455.08;108168;1252;71286;-74
2024/02/03 08:57:22;;;;;;;;;;;;;;;2.72;100.00;99446.83;100068;1254;20002541;-70
2024/02/03 08:59:53;;;;;;;;;;;;;;;2.74;100.00;99445.40;100981;1254;10001782;-72
2024/02/03 09:02:20;;;;;;;;;;;;;;;2.77;100.00;99446.77;107978;1258;71441;-72
2024/02/03 09:04:48;;;;;;;;;;;;;;;2.79;100.00;99435.23;107976;1254;60976;-74
2024/02/03 09:07:15;;;;;;;;;;;;;;;2.85;100.00;99433.54;108103;1254;60287;-74
2024/02/03 09:09:43;;;;;;;;;;;;;;;2.87;100.00;99423.40;108584;1254;73054;-74
2024/02/03 09:12:11;;;;;;;;;;;;;;;2.90;100.00;99416.34;108549;1252;73026;-75
2024/02/03 09:14:39;;;;;;;;;;;;;;;2.92;100.00;99413.59;108346;1254;73046;-75
2024/02/03 09:17:07;;;;;;;;;;;;;;;2.95;100.00;99412.43;107966;1254;60265;-74
2024/02/03 09:19:35;;;;;;;;;;;;;;;2.98;100.00;99408.27;107948;1254;60405;-74
2024/02/03 09:22:03;;;;;;;;;;;;;;;3.02;100.00;99403.07;108036;1254;73891;-76
2024/02/03 09:24:31;;;;;;;;;;;;;;;3.08;100.00;99391.40;108013;1254;73339;-74
2024/02/03 09:26:59;;;;;;;;;;;;;;;3.12;100.00;99389.05;107984;1253;71153;-74
2024/02/03 09:29:27;;;;;;;;;;;;;;;3.15;100.00;99383.08;108143;1254;60491;-77
2024/02/03 09:31:54;;;;;;;;;;;;;;;3.19;100.00;99375.89;108058;1253;59821;-75
2024/02/03 09:34:26;;;;;;;;;;;;;;;3.21;100.00;99369.05;107974;1254;72559;-75
2024/02/03 09:36:54;;;;;;;;;;;;;;;3.24;100.00;99360.34;108107;1254;72933;-77
2024/02/03 09:39:24;;;;;;;;;;;;;;;3.28;100.00;99358.09;107989;1254;73236;-76
2024/02/03 09:41:54;;;;;;;;;;;;;;;3.32;100.00;99352.60;107972;1253;60918;-72
2024/02/03 09:44:22;;;;;;;;;;;;;;;3.37;100.00;99356.45;107988;1254;60469;-75
2024/02/03 09:46:49;;;;;;;;;;;;;;;3.38;100.00;99347.85;108030;1258;73863;-74
2024/02/03 09:49:17;;;;;;;;;;;;;;;3.39;100.00;99342.74;108049;1254;73137;-74
2024/02/03 09:51:46;;;;;;;;;;;;;;;3.38;100.00;99336.02;108031;1254;71245;-76
2024/02/03 09:54:13;;;;;;;;;;;;;;;3.38;100.00;99330.22;107992;1254;60326;-74
2024/02/03 09:56:41;;;;;;;;;;;;;;;3.39;100.00;99327.44;107959;1254;60285;-77
2024/02/03 09:59:09;;;;;;;;;;;;;;;3.40;100.00;99323.07;108008;1254;73233;-75
2024/02/03 10:01:36;;;;;;;;;;;;;;;3.40;100.00;99324.41;107926;1253;71606;-76
2024/02/03 10:04:04;;;;;;;;;;;;;;;3.38;100.00;99318.61;107955;1258;72365;-75
2024/02/03 10:06:32;;;;;;;;;;;;;;;3.38;100.00;99317.55;107937;1253;61023;-78
2024/02/03 10:08:59;;;;;;;;;;;;;;;3.39;100.00;99315.83;108023;1252;60270;-73
2024/02/03 10:11:35;;;;;;;;;;;;;;;3.38;100.00;99313.28;107963;1253;73798;-76
2024/02/03 10:14:03;;;;;;;;;;;;;;;3.39;100.00;99308.19;108079;1254;73116;-76
2024/02/03 10:16:49;;;;;;;;;;;;;;;3.38;100.00;99297.44;108109;1253;71206;-73
2024/02/03 10:19:17;;;;;;;;;;;;;;;3.40;100.00;99296.31;108106;1253;60874;-74
2024/02/03 10:21:46;;;;;;;;;;;;;;;3.42;100.00;99292.27;108027;1256;60447;-75
2024/02/03 10:24:25;;;;;;;;;;;;;;;3.43;100.00;99283.48;108052;1254;76128;-74
2024/02/03 10:27:00;;;;;;;;;;;;;;;3.43;100.00;99281.33;107945;1254;75039;-76
2024/02/03 10:29:28;;;;;;;;;;;;;;;3.44;100.00;99276.79;108030;1254;71419;-74
2024/02/03 10:31:56;;;;;;;;;;;;;;;3.47;100.00;99273.05;108866;1254;59556;-75
2024/02/03 10:34:23;;;;;;;;;;;;;;;3.52;100.00;99265.50;108049;1254;59188;-75
2024/02/03 10:36:52;;;;;;;;;;;;;;;3.58;100.00;99258.14;108097;1257;72705;-74
2024/02/03 10:39:20;;;;;;;;;;;;;;;3.62;100.00;99256.97;108059;1252;72706;-74
2024/02/03 10:41:48;;;;;;;;;;;;;;;3.62;100.00;99258.35;108016;1254;72711;-75
2024/02/03 10:44:21;;;;;;;;;;;;;;;3.62;100.00;99256.77;107943;1254;61076;-76
2024/02/03 10:46:52;;;;;;;;;;;;;;;3.64;100.00;99255.80;108042;1254;60677;-79
2024/02/03 10:49:25;;;;;;;;;;;;;;;3.66;100.00;99253.93;107919;1254;74038;-76
2024/02/03 10:51:53;;;;;;;;;;;;;;;3.72;100.00;99255.23;107958;1254;71436;-74
2024/02/03 10:54:21;;;;;;;;;;;;;;;3.77;100.00;99250.96;107995;1258;71550;-75
2024/02/03 10:56:50;;;;;;;;;;;;;;;3.83;100.00;99248.23;108069;1254;61726;-75
2024/02/03 10:59:19;;;;;;;;;;;;;;;3.87;100.00;99247.34;107909;1257;60362;-75
2024/02/03 11:01:46;;;;;;;;;;;;;;;3.91;100.00;99241.52;107947;1254;74171;-77
2024/02/03 11:04:14;;;;;;;;;;;;;;;3.95;100.00;99242.21;107972;1254;70710;-76
2024/02/03 11:06:44;;;;;;;;;;;;;;;4.03;100.00;99241.23;107883;1254;70684;-75
2024/02/03 11:09:22;;;;;;;;;;;;;;;4.10;100.00;99236.95;107991;1253;59652;-78
2024/02/03 11:11:53;;;;;;;;;;;;;;;4.16;100.00;99230.27;107986;1253;60418;-76
2024/02/03 11:14:22;;;;;;;;;;;;;;;4.23;100.00;99230.11;107957;1254;74519;-75
2024/02/03 11:16:53;;;;;;;;;;;;;;;4.28;100.00;99217.84;107951;1254;72718;-75
2024/02/03 11:19:24;;;;;;;;;;;;;;;4.33;100.00;99221.50;107912;1254;72021;-75
2024/02/03 11:21:56;;;;;;;;;;;;;;;4.38;100.00;99215.59;108113;1252;61051;-73
2024/02/03 11:24:24;;;;;;;;;;;;;;;4.44;100.00;99214.36;108010;1253;60460;-74
2024/02/03 11:27:07;;;;;;;;;;;;;;;4.48;100.00;99220.86;108025;1254;74121;-76
2024/02/03 11:29:35;;;;;;;;;;;;;;;4.54;100.00;99217.32;108017;1253;71833;-76
2024/02/03 11:32:06;;;;;;;;;;;;;;;4.56;100.00;99212.52;108058;1254;74869;-75
2024/02/03 11:34:35;;;;;;;;;;;;;;;4.59;100.00;99208.21;108146;1254;60954;-73
2024/02/03 11:37:04;;;;;;;;;;;;;;;4.64;100.00;99210.27;108046;1254;61077;-74
2024/02/03 11:39:33;;;;;;;;;;;;;;;4.66;100.00;99214.10;107923;1254;73942;-76
2024/02/03 11:42:02;;;;;;;;;;;;;;;4.70;100.00;99212.34;109240;1254;74334;-75
2024/02/03 11:44:34;;;;;;;;;;;;;;;4.73;100.00;99204.69;107915;1254;73313;-74
2024/02/03 11:47:05;;;;;;;;;;;;;;;4.76;100.00;99208.80;107908;1253;61983;-74
2024/02/03 11:49:33;;;;;;;;;;;;;;;4.79;100.00;99202.58;108003;1254;59614;-74
2024/02/03 11:52:01;;;;;;;;;;;;;;;4.80;100.00;99204.11;108049;1253;73814;-73
2024/02/03 11:54:29;;;;;;;;;;;;;;;4.82;100.00;99195.72;107965;1253;72861;-73
2024/02/03 11:56:57;;;;;;;;;;;;;;;4.84;100.00;99198.54;108363;1252;71816;-76
2024/02/03 11:59:28;;;;;;;;;;;;;;;4.86;100.00;99200.56;107943;1254;60969;-75
2024/02/03 12:01:56;;;;;;;;;;;;;;;4.90;100.00;99188.91;108016;1253;60369;-74
2024/02/03 12:04:24;;;;;;;;;;;;;;;4.92;100.00;99189.09;107976;1253;73258;-75
2024/02/03 12:06:52;;;;;;;;;;;;;;;4.95;100.00;99191.33;108007;1253;73762;-73
2024/02/03 12:09:20;;;;;;;;;;;;;;;5.00;100.00;99183.21;107914;1254;72708;-74
2024/02/03 12:11:49;;;;;;;;;;;;;;;5.02;100.00;99187.14;107910;1254;60402;-76
2024/02/03 12:14:17;;;;;;;;;;;;;;;5.03;100.00;99181.21;107960;1254;60323;-74
2024/02/03 12:16:45;;;;;;;;;;;;;;;5.06;100.00;99184.69;108569;1253;73810;-72
2024/02/03 12:19:13;;;;;;;;;;;;;;;5.06;100.00;99183.24;108003;1254;72751;-76
2024/02/03 12:21:41;;;;;;;;;;;;;;;5.06;100.00;99186.52;107981;1254;73051;-73
2024/02/03 12:24:10;;;;;;;;;;;;;;;5.05;100.00;99182.30;108044;1254;61428;-75
2024/02/03 12:26:39;;;;;;;;;;;;;;;5.03;100.00;99179.27;107946;1253;61745;-73
2024/02/03 12:29:07;;;;;;;;;;;;;;;5.02;100.00;99166.61;108022;1254;73228;-74
2024/02/03 12:31:35;;;;;;;;;;;;;;;5.03;100.00;99170.10;108393;1253;71670;-73
2024/02/03 12:34:03;;;;;;;;;;;;;;;5.05;100.00;99171.81;107924;1258;70861;-74
2024/02/03 12:36:32;;;;;;;;;;;;;;;5.06;100.00;99175.22;108001;1254;60312;-74
2024/02/03 12:39:00;;;;;;;;;;;;;;;5.09;100.00;99167.02;108036;1252;59518;-72
2024/02/03 12:41:27;;;;;;;;;;;;;;;5.10;100.00;99167.98;108016;1253;74389;-74
2024/02/03 12:43:55;;;;;;;;;;;;;;;5.10;100.00;99172.64;108038;1253;73164;-74
2024/02/03 12:46:23;;;;;;;;;;;;;;;5.09;100.00;99164.54;107980;1254;72760;-74